sensor_id;sensor_type;location;lat;lon;timestamp;temperature;humidity
16515;DHT22;8370;52.556;7.970;2023-04-30T00:00:47;7.70;99.90
16515;DHT22;8370;52.556;7.970;2023-04-30T00:03:13;7.60;99.90
16515;DHT22;8370;52.556;7.970;2023-04-30T00:05:38;7.60;99.90
16515;DHT22;8370;52.556;7.970;2023-04-30T00:08:04;7.50;99.90
16515;DHT22;8370;52.556;7.970;2023-04-30T00:10:29;7.40;99.90
16515;DHT22;8370;52.556;7.970;2023-04-30T00:12:55;7.40;99.90
16515;DHT22;8370;52.556;7.970;2023-04-30T00:15:21;7.30;99.90
16515;DHT22;8370;52.556;7.970;2023-04-30T00:17:47;7.30;99.90
16515;DHT22;8370;52.556;7.970;2023-04-30T00:20:12;7.30;99.90
16515;DHT22;8370;52.556;7.970;2023-04-30T00:22:38;7.20;99.90
16515;DHT22;8370;52.556;7.970;2023-04-30T00:25:04;7.20;99.90
16515;DHT22;8370;52.556;7.970;2023-04-30T00:27:29;7.10;99.90
16515;DHT22;8370;52.556;7.970;2023-04-30T00:29:56;7.10;99.90
16515;DHT22;8370;52.556;7.970;2023-04-30T00:32:22;7.10;99.90
16515;DHT22;8370;52.556;7.970;2023-04-30T00:34:47;7.10;99.90
16515;DHT22;8370;52.556;7.970;2023-04-30T00:37:13;7.00;99.90
16515;DHT22;8370;52.556;7.970;2023-04-30T00:39:38;7.00;99.90
16515;DHT22;8370;52.556;7.970;2023-04-30T00:42:04;6.90;99.90
16515;DHT22;8370;52.556;7.970;2023-04-30T00:44:29;6.90;99.90
16515;DHT22;8370;52.556;7.970;2023-04-30T00:46:54;6.90;99.90
16515;DHT22;8370;52.556;7.970;2023-04-30T00:49:20;6.80;99.90
16515;DHT22;8370;52.556;7.970;2023-04-30T00:51:46;6.80;99.90
16515;DHT22;8370;52.556;7.970;2023-04-30T00:54:12;6.80;99.90
16515;DHT22;8370;52.556;7.970;2023-04-30T00:56:38;6.80;99.90
16515;DHT22;8370;52.556;7.970;2023-04-30T00:59:03;6.80;99.90
16515;DHT22;8370;52.556;7.970;2023-04-30T01:01:29;6.70;99.90
16515;DHT22;8370;52.556;7.970;2023-04-30T01:03:56;6.70;99.90
16515;DHT22;8370;52.556;7.970;2023-04-30T01:06:21;6.70;99.90
16515;DHT22;8370;52.556;7.970;2023-04-30T01:08:48;6.60;99.90
16515;DHT22;8370;52.556;7.970;2023-04-30T01:11:21;6.60;99.90
16515;DHT22;8370;52.556;7.970;2023-04-30T01:14:12;6.50;99.90
16515;DHT22;8370;52.556;7.970;2023-04-30T01:19:55;6.40;99.90
16515;DHT22;8370;52.556;7.970;2023-04-30T01:22:35;6.40;99.90
16515;DHT22;8370;52.556;7.970;2023-04-30T01:27:59;6.30;99.90
16515;DHT22;8370;52.556;7.970;2023-04-30T01:30:25;6.30;99.90
16515;DHT22;8370;52.556;7.970;2023-04-30T01:32:51;6.30;99.90
16515;DHT22;8370;52.556;7.970;2023-04-30T01:35:16;6.30;99.90
16515;DHT22;8370;52.556;7.970;2023-04-30T01:38:08;6.20;99.90
16515;DHT22;8370;52.556;7.970;2023-04-30T01:40:44;6.20;99.90
16515;DHT22;8370;52.556;7.970;2023-04-30T01:44:04;6.10;99.90
16515;DHT22;8370;52.556;7.970;2023-04-30T01:46:31;6.10;99.90
16515;DHT22;8370;52.556;7.970;2023-04-30T01:49:11;6.00;99.90
16515;DHT22;8370;52.556;7.970;2023-04-30T01:51:41;6.00;99.90
16515;DHT22;8370;52.556;7.970;2023-04-30T01:54:33;5.90;99.90
16515;DHT22;8370;52.556;7.970;2023-04-30T01:57:12;5.80;99.90
16515;DHT22;8370;52.556;7.970;2023-04-30T01:59:42;5.70;99.90
16515;DHT22;8370;52.556;7.970;2023-04-30T02:02:08;5.80;99.90
16515;DHT22;8370;52.556;7.970;2023-04-30T02:04:33;5.70;99.90
16515;DHT22;8370;52.556;7.970;2023-04-30T02:06:59;5.70;99.90
16515;DHT22;8370;52.556;7.970;2023-04-30T02:09:25;5.70;99.90
16515;DHT22;8370;52.556;7.970;2023-04-30T02:11:50;5.70;99.90
16515;DHT22;8370;52.556;7.970;2023-04-30T02:14:16;5.80;99.90
16515;DHT22;8370;52.556;7.970;2023-04-30T02:16:41;5.80;99.90
16515;DHT22;8370;52.556;7.970;2023-04-30T02:19:07;5.70;99.90
16515;DHT22;8370;52.556;7.970;2023-04-30T02:21:32;5.70;99.90
16515;DHT22;8370;52.556;7.970;2023-04-30T02:23:58;5.70;99.90
16515;DHT22;8370;52.556;7.970;2023-04-30T02:26:23;5.60;99.90
16515;DHT22;8370;52.556;7.970;2023-04-30T02:28:50;5.60;99.90
16515;DHT22;8370;52.556;7.970;2023-04-30T02:31:16;5.60;99.90
16515;DHT22;8370;52.556;7.970;2023-04-30T02:33:41;5.60;99.90
16515;DHT22;8370;52.556;7.970;2023-04-30T02:36:07;5.50;99.90
16515;DHT22;8370;52.556;7.970;2023-04-30T02:38:32;5.50;99.90
16515;DHT22;8370;52.556;7.970;2023-04-30T02:40:58;5.50;99.90
16515;DHT22;8370;52.556;7.970;2023-04-30T02:43:23;5.40;99.90
16515;DHT22;8370;52.556;7.970;2023-04-30T02:45:49;5.50;99.90
16515;DHT22;8370;52.556;7.970;2023-04-30T02:48:14;5.40;99.90
16515;DHT22;8370;52.556;7.970;2023-04-30T02:50:40;5.40;99.90
16515;DHT22;8370;52.556;7.970;2023-04-30T02:53:05;5.30;99.90
16515;DHT22;8370;52.556;7.970;2023-04-30T02:55:31;5.30;99.90
16515;DHT22;8370;52.556;7.970;2023-04-30T02:57:57;5.30;99.90
16515;DHT22;8370;52.556;7.970;2023-04-30T03:00:22;5.30;99.90
16515;DHT22;8370;52.556;7.970;2023-04-30T03:02:48;5.30;99.90
16515;DHT22;8370;52.556;7.970;2023-04-30T03:05:13;5.20;99.90
16515;DHT22;8370;52.556;7.970;2023-04-30T03:07:40;5.20;99.90
16515;DHT22;8370;52.556;7.970;2023-04-30T03:10:06;5.20;99.90
16515;DHT22;8370;52.556;7.970;2023-04-30T03:12:32;5.20;99.90
16515;DHT22;8370;52.556;7.970;2023-04-30T03:14:57;5.10;99.90
16515;DHT22;8370;52.556;7.970;2023-04-30T03:17:23;5.10;99.90
16515;DHT22;8370;52.556;7.970;2023-04-30T03:19:49;5.00;99.90
16515;DHT22;8370;52.556;7.970;2023-04-30T03:22:15;4.90;99.90
16515;DHT22;8370;52.556;7.970;2023-04-30T03:24:44;4.80;99.90
16515;DHT22;8370;52.556;7.970;2023-04-30T03:27:09;4.90;99.90
16515;DHT22;8370;52.556;7.970;2023-04-30T03:29:34;4.90;99.90
16515;DHT22;8370;52.556;7.970;2023-04-30T03:32:00;4.90;99.90
16515;DHT22;8370;52.556;7.970;2023-04-30T03:34:25;4.80;99.90
16515;DHT22;8370;52.556;7.970;2023-04-30T03:36:51;4.80;99.90
16515;DHT22;8370;52.556;7.970;2023-04-30T03:39:16;4.80;99.90
16515;DHT22;8370;52.556;7.970;2023-04-30T03:41:42;4.80;99.90
16515;DHT22;8370;52.556;7.970;2023-04-30T03:44:08;4.70;99.90
16515;DHT22;8370;52.556;7.970;2023-04-30T03:46:42;4.70;99.90
16515;DHT22;8370;52.556;7.970;2023-04-30T03:49:08;4.70;99.90
16515;DHT22;8370;52.556;7.970;2023-04-30T03:51:33;4.60;99.90
16515;DHT22;8370;52.556;7.970;2023-04-30T03:54:04;4.60;99.90
16515;DHT22;8370;52.556;7.970;2023-04-30T03:56:31;4.50;99.90
16515;DHT22;8370;52.556;7.970;2023-04-30T03:58:56;4.50;99.90
16515;DHT22;8370;52.556;7.970;2023-04-30T04:01:22;4.50;99.90
16515;DHT22;8370;52.556;7.970;2023-04-30T04:03:47;4.50;99.90
16515;DHT22;8370;52.556;7.970;2023-04-30T04:06:13;4.50;99.90
16515;DHT22;8370;52.556;7.970;2023-04-30T04:08:38;4.50;99.90
16515;DHT22;8370;52.556;7.970;2023-04-30T04:11:08;4.50;99.90
16515;DHT22;8370;52.556;7.970;2023-04-30T04:13:33;4.50;99.90
16515;DHT22;8370;52.556;7.970;2023-04-30T04:15:59;4.60;99.90
16515;DHT22;8370;52.556;7.970;2023-04-30T04:18:24;4.50;99.90
16515;DHT22;8370;52.556;7.970;2023-04-30T04:20:50;4.60;99.90
16515;DHT22;8370;52.556;7.970;2023-04-30T04:23:16;4.60;99.90
16515;DHT22;8370;52.556;7.970;2023-04-30T04:25:41;4.60;99.90
16515;DHT22;8370;52.556;7.970;2023-04-30T04:28:08;4.60;99.90
16515;DHT22;8370;52.556;7.970;2023-04-30T04:30:34;4.70;99.90
16515;DHT22;8370;52.556;7.970;2023-04-30T04:33:00;4.70;99.90
16515;DHT22;8370;52.556;7.970;2023-04-30T04:35:26;4.70;99.90
16515;DHT22;8370;52.556;7.970;2023-04-30T04:37:52;4.70;99.90
16515;DHT22;8370;52.556;7.970;2023-04-30T04:40:17;4.70;99.90
16515;DHT22;8370;52.556;7.970;2023-04-30T04:42:43;4.70;99.90
16515;DHT22;8370;52.556;7.970;2023-04-30T04:45:09;4.70;99.90
16515;DHT22;8370;52.556;7.970;2023-04-30T04:47:35;4.70;99.90
16515;DHT22;8370;52.556;7.970;2023-04-30T04:50:01;4.70;99.90
16515;DHT22;8370;52.556;7.970;2023-04-30T04:52:27;4.70;99.90
16515;DHT22;8370;52.556;7.970;2023-04-30T04:54:52;4.70;99.90
16515;DHT22;8370;52.556;7.970;2023-04-30T04:57:18;4.80;99.90
16515;DHT22;8370;52.556;7.970;2023-04-30T04:59:43;4.80;99.90
16515;DHT22;8370;52.556;7.970;2023-04-30T05:02:09;4.80;99.90
16515;DHT22;8370;52.556;7.970;2023-04-30T05:04:34;4.90;99.90
16515;DHT22;8370;52.556;7.970;2023-04-30T05:07:00;4.90;99.90
16515;DHT22;8370;52.556;7.970;2023-04-30T05:09:25;5.00;99.90
16515;DHT22;8370;52.556;7.970;2023-04-30T05:11:51;5.10;99.90
16515;DHT22;8370;52.556;7.970;2023-04-30T05:14:16;5.20;99.90
16515;DHT22;8370;52.556;7.970;2023-04-30T05:16:42;5.20;99.90
16515;DHT22;8370;52.556;7.970;2023-04-30T05:19:07;5.30;99.90
16515;DHT22;8370;52.556;7.970;2023-04-30T05:21:34;5.30;99.90
16515;DHT22;8370;52.556;7.970;2023-04-30T05:24:00;5.40;99.90
16515;DHT22;8370;52.556;7.970;2023-04-30T05:26:25;5.50;99.90
16515;DHT22;8370;52.556;7.970;2023-04-30T05:28:51;5.60;99.90
16515;DHT22;8370;52.556;7.970;2023-04-30T05:31:17;5.60;99.90
16515;DHT22;8370;52.556;7.970;2023-04-30T05:33:42;5.70;99.90
16515;DHT22;8370;52.556;7.970;2023-04-30T05:36:09;5.70;99.90
16515;DHT22;8370;52.556;7.970;2023-04-30T05:38:34;5.80;99.90
16515;DHT22;8370;52.556;7.970;2023-04-30T05:41:00;5.90;99.90
16515;DHT22;8370;52.556;7.970;2023-04-30T05:43:25;5.90;99.90
16515;DHT22;8370;52.556;7.970;2023-04-30T05:45:51;6.10;99.90
16515;DHT22;8370;52.556;7.970;2023-04-30T05:48:16;6.10;99.90
16515;DHT22;8370;52.556;7.970;2023-04-30T05:50:42;6.20;99.90
16515;DHT22;8370;52.556;7.970;2023-04-30T05:53:07;6.30;99.90
16515;DHT22;8370;52.556;7.970;2023-04-30T05:55:33;6.30;99.90
16515;DHT22;8370;52.556;7.970;2023-04-30T05:57:59;6.40;99.90
16515;DHT22;8370;52.556;7.970;2023-04-30T06:00:24;6.50;99.90
16515;DHT22;8370;52.556;7.970;2023-04-30T06:02:50;6.60;99.90
16515;DHT22;8370;52.556;7.970;2023-04-30T06:05:15;6.60;99.90
16515;DHT22;8370;52.556;7.970;2023-04-30T06:07:41;6.70;99.90
16515;DHT22;8370;52.556;7.970;2023-04-30T06:10:07;6.80;99.90
16515;DHT22;8370;52.556;7.970;2023-04-30T06:12:33;6.80;99.90
16515;DHT22;8370;52.556;7.970;2023-04-30T06:14:59;6.90;99.90
16515;DHT22;8370;52.556;7.970;2023-04-30T06:17:24;7.00;99.90
16515;DHT22;8370;52.556;7.970;2023-04-30T06:19:50;7.00;99.90
16515;DHT22;8370;52.556;7.970;2023-04-30T06:22:15;7.10;99.90
16515;DHT22;8370;52.556;7.970;2023-04-30T06:24:41;7.20;99.90
16515;DHT22;8370;52.556;7.970;2023-04-30T06:27:06;7.30;99.90
16515;DHT22;8370;52.556;7.970;2023-04-30T06:29:32;7.40;99.90
16515;DHT22;8370;52.556;7.970;2023-04-30T06:31:57;7.50;99.90
16515;DHT22;8370;52.556;7.970;2023-04-30T06:34:23;7.60;99.90
16515;DHT22;8370;52.556;7.970;2023-04-30T06:36:48;7.70;99.90
16515;DHT22;8370;52.556;7.970;2023-04-30T06:39:15;7.70;99.90
16515;DHT22;8370;52.556;7.970;2023-04-30T06:41:40;7.90;99.90
16515;DHT22;8370;52.556;7.970;2023-04-30T06:44:07;8.00;99.90
16515;DHT22;8370;52.556;7.970;2023-04-30T06:46:33;8.00;99.90
16515;DHT22;8370;52.556;7.970;2023-04-30T06:48:59;8.10;99.90
16515;DHT22;8370;52.556;7.970;2023-04-30T06:51:24;8.20;99.90
16515;DHT22;8370;52.556;7.970;2023-04-30T06:53:51;8.30;99.90
16515;DHT22;8370;52.556;7.970;2023-04-30T06:56:16;8.30;99.90
16515;DHT22;8370;52.556;7.970;2023-04-30T06:58:42;8.40;99.90
16515;DHT22;8370;52.556;7.970;2023-04-30T07:01:07;8.60;99.90
16515;DHT22;8370;52.556;7.970;2023-04-30T07:03:34;8.70;99.90
16515;DHT22;8370;52.556;7.970;2023-04-30T07:05:59;8.80;99.90
16515;DHT22;8370;52.556;7.970;2023-04-30T07:08:25;8.90;99.90
16515;DHT22;8370;52.556;7.970;2023-04-30T07:10:50;9.00;99.90
16515;DHT22;8370;52.556;7.970;2023-04-30T07:13:16;9.10;99.90
16515;DHT22;8370;52.556;7.970;2023-04-30T07:15:41;9.20;99.90
16515;DHT22;8370;52.556;7.970;2023-04-30T07:18:07;9.20;99.90
16515;DHT22;8370;52.556;7.970;2023-04-30T07:20:34;9.30;99.90
16515;DHT22;8370;52.556;7.970;2023-04-30T07:22:59;9.40;99.90
16515;DHT22;8370;52.556;7.970;2023-04-30T07:25:25;9.40;99.90
16515;DHT22;8370;52.556;7.970;2023-04-30T07:27:51;9.50;99.90
16515;DHT22;8370;52.556;7.970;2023-04-30T07:30:19;9.60;99.90
16515;DHT22;8370;52.556;7.970;2023-04-30T07:32:46;9.70;99.90
16515;DHT22;8370;52.556;7.970;2023-04-30T07:35:12;9.60;99.90
16515;DHT22;8370;52.556;7.970;2023-04-30T07:37:38;9.60;99.90
16515;DHT22;8370;52.556;7.970;2023-04-30T07:40:04;9.50;99.90
16515;DHT22;8370;52.556;7.970;2023-04-30T07:42:30;9.50;99.90
16515;DHT22;8370;52.556;7.970;2023-04-30T07:44:55;9.60;99.90
16515;DHT22;8370;52.556;7.970;2023-04-30T07:47:21;9.80;99.90
16515;DHT22;8370;52.556;7.970;2023-04-30T07:49:47;9.90;99.90
16515;DHT22;8370;52.556;7.970;2023-04-30T07:52:13;10.10;99.90
16515;DHT22;8370;52.556;7.970;2023-04-30T07:54:38;10.20;99.90
16515;DHT22;8370;52.556;7.970;2023-04-30T07:57:05;10.30;99.90
16515;DHT22;8370;52.556;7.970;2023-04-30T07:59:31;10.40;99.90
16515;DHT22;8370;52.556;7.970;2023-04-30T08:01:57;10.40;99.90
16515;DHT22;8370;52.556;7.970;2023-04-30T08:04:23;10.40;99.90
16515;DHT22;8370;52.556;7.970;2023-04-30T08:06:48;10.50;99.90
16515;DHT22;8370;52.556;7.970;2023-04-30T08:09:14;10.60;99.90
16515;DHT22;8370;52.556;7.970;2023-04-30T08:11:40;10.70;99.90
16515;DHT22;8370;52.556;7.970;2023-04-30T08:14:05;10.90;99.90
16515;DHT22;8370;52.556;7.970;2023-04-30T08:16:31;11.00;99.90
16515;DHT22;8370;52.556;7.970;2023-04-30T08:18:56;11.00;99.90
16515;DHT22;8370;52.556;7.970;2023-04-30T08:21:22;11.10;99.90
16515;DHT22;8370;52.556;7.970;2023-04-30T08:23:48;11.20;99.90
16515;DHT22;8370;52.556;7.970;2023-04-30T08:26:14;11.30;99.90
16515;DHT22;8370;52.556;7.970;2023-04-30T08:28:39;11.30;99.90
16515;DHT22;8370;52.556;7.970;2023-04-30T08:31:05;11.40;99.90
16515;DHT22;8370;52.556;7.970;2023-04-30T08:33:30;11.40;99.90
16515;DHT22;8370;52.556;7.970;2023-04-30T08:35:56;11.40;99.90
16515;DHT22;8370;52.556;7.970;2023-04-30T08:38:22;11.40;99.90
16515;DHT22;8370;52.556;7.970;2023-04-30T08:41:16;11.30;99.90
16515;DHT22;8370;52.556;7.970;2023-04-30T08:43:44;11.40;99.90
16515;DHT22;8370;52.556;7.970;2023-04-30T08:46:11;11.50;99.90
16515;DHT22;8370;52.556;7.970;2023-04-30T08:48:38;11.70;99.90
16515;DHT22;8370;52.556;7.970;2023-04-30T08:51:05;11.80;99.90
16515;DHT22;8370;52.556;7.970;2023-04-30T08:53:34;11.80;99.90
16515;DHT22;8370;52.556;7.970;2023-04-30T08:56:00;11.90;99.90
16515;DHT22;8370;52.556;7.970;2023-04-30T08:58:25;12.00;99.90
16515;DHT22;8370;52.556;7.970;2023-04-30T09:00:51;12.00;99.90
16515;DHT22;8370;52.556;7.970;2023-04-30T09:03:16;12.10;99.90
16515;DHT22;8370;52.556;7.970;2023-04-30T09:05:42;12.10;99.90
16515;DHT22;8370;52.556;7.970;2023-04-30T09:08:08;12.10;99.90
16515;DHT22;8370;52.556;7.970;2023-04-30T09:10:34;12.20;99.90
16515;DHT22;8370;52.556;7.970;2023-04-30T09:13:05;12.20;99.90
16515;DHT22;8370;52.556;7.970;2023-04-30T09:15:33;12.30;99.90
16515;DHT22;8370;52.556;7.970;2023-04-30T09:18:24;12.30;99.90
16515;DHT22;8370;52.556;7.970;2023-04-30T09:20:59;12.40;99.90
16515;DHT22;8370;52.556;7.970;2023-04-30T09:23:28;12.50;99.90
16515;DHT22;8370;52.556;7.970;2023-04-30T09:25:54;12.50;99.90
16515;DHT22;8370;52.556;7.970;2023-04-30T09:28:22;12.50;99.90
16515;DHT22;8370;52.556;7.970;2023-04-30T09:30:50;12.60;99.90
16515;DHT22;8370;52.556;7.970;2023-04-30T09:33:16;12.80;99.90
16515;DHT22;8370;52.556;7.970;2023-04-30T09:35:41;12.80;99.90
16515;DHT22;8370;52.556;7.970;2023-04-30T09:38:07;12.80;99.90
16515;DHT22;8370;52.556;7.970;2023-04-30T09:40:49;12.70;99.90
16515;DHT22;8370;52.556;7.970;2023-04-30T09:43:14;12.60;99.90
16515;DHT22;8370;52.556;7.970;2023-04-30T09:45:47;12.50;99.90
16515;DHT22;8370;52.556;7.970;2023-04-30T09:48:16;12.70;99.90
16515;DHT22;8370;52.556;7.970;2023-04-30T09:50:43;12.90;99.90
16515;DHT22;8370;52.556;7.970;2023-04-30T09:53:11;13.10;99.90
16515;DHT22;8370;52.556;7.970;2023-04-30T09:55:43;13.40;99.90
16515;DHT22;8370;52.556;7.970;2023-04-30T09:58:10;13.50;99.90
16515;DHT22;8370;52.556;7.970;2023-04-30T10:00:36;13.40;99.90
16515;DHT22;8370;52.556;7.970;2023-04-30T10:03:09;13.30;99.90
16515;DHT22;8370;52.556;7.970;2023-04-30T10:05:45;13.30;99.90
16515;DHT22;8370;52.556;7.970;2023-04-30T10:11:01;13.50;99.90
16515;DHT22;8370;52.556;7.970;2023-04-30T10:13:50;13.40;99.90
16515;DHT22;8370;52.556;7.970;2023-04-30T10:16:37;13.40;99.90
16515;DHT22;8370;52.556;7.970;2023-04-30T10:19:25;13.40;99.90
16515;DHT22;8370;52.556;7.970;2023-04-30T10:21:54;13.30;99.90
16515;DHT22;8370;52.556;7.970;2023-04-30T10:24:19;13.30;99.90
16515;DHT22;8370;52.556;7.970;2023-04-30T10:26:46;13.20;99.90
16515;DHT22;8370;52.556;7.970;2023-04-30T10:29:13;13.20;99.90
16515;DHT22;8370;52.556;7.970;2023-04-30T10:31:40;13.30;99.90
16515;DHT22;8370;52.556;7.970;2023-04-30T10:34:40;13.50;99.90
16515;DHT22;8370;52.556;7.970;2023-04-30T10:37:28;13.70;99.90
16515;DHT22;8370;52.556;7.970;2023-04-30T10:39:55;14.00;99.90
16515;DHT22;8370;52.556;7.970;2023-04-30T10:42:21;14.20;99.90
16515;DHT22;8370;52.556;7.970;2023-04-30T10:44:46;14.40;99.90
16515;DHT22;8370;52.556;7.970;2023-04-30T10:47:13;14.40;99.90
16515;DHT22;8370;52.556;7.970;2023-04-30T10:49:45;14.20;99.90
16515;DHT22;8370;52.556;7.970;2023-04-30T10:52:12;14.10;99.90
16515;DHT22;8370;52.556;7.970;2023-04-30T10:54:39;14.10;99.90
16515;DHT22;8370;52.556;7.970;2023-04-30T10:57:13;14.50;99.90
16515;DHT22;8370;52.556;7.970;2023-04-30T11:02:40;14.90;99.90
16515;DHT22;8370;52.556;7.970;2023-04-30T11:05:17;15.10;99.90
16515;DHT22;8370;52.556;7.970;2023-04-30T11:07:56;15.20;99.90
16515;DHT22;8370;52.556;7.970;2023-04-30T11:10:24;15.20;99.90
16515;DHT22;8370;52.556;7.970;2023-04-30T11:12:52;15.30;99.90
16515;DHT22;8370;52.556;7.970;2023-04-30T11:15:25;15.30;99.90
16515;DHT22;8370;52.556;7.970;2023-04-30T11:17:56;15.30;99.90
16515;DHT22;8370;52.556;7.970;2023-04-30T11:20:23;15.60;99.90
16515;DHT22;8370;52.556;7.970;2023-04-30T11:23:12;15.90;99.90
16515;DHT22;8370;52.556;7.970;2023-04-30T11:25:45;16.10;99.90
16515;DHT22;8370;52.556;7.970;2023-04-30T11:28:25;16.10;99.90
16515;DHT22;8370;52.556;7.970;2023-04-30T11:33:19;16.10;99.90
16515;DHT22;8370;52.556;7.970;2023-04-30T11:35:44;16.10;99.90
16515;DHT22;8370;52.556;7.970;2023-04-30T11:38:13;16.20;99.90
16515;DHT22;8370;52.556;7.970;2023-04-30T11:40:39;16.40;99.90
16515;DHT22;8370;52.556;7.970;2023-04-30T11:43:05;16.50;99.90
16515;DHT22;8370;52.556;7.970;2023-04-30T11:45:31;16.60;99.90
16515;DHT22;8370;52.556;7.970;2023-04-30T11:47:56;16.90;99.90
16515;DHT22;8370;52.556;7.970;2023-04-30T11:50:24;17.20;99.90
16515;DHT22;8370;52.556;7.970;2023-04-30T11:52:55;17.90;99.90
16515;DHT22;8370;52.556;7.970;2023-04-30T11:55:24;19.50;99.90
16515;DHT22;8370;52.556;7.970;2023-04-30T11:57:52;22.40;99.90
16515;DHT22;8370;52.556;7.970;2023-04-30T12:00:21;24.60;99.90
16515;DHT22;8370;52.556;7.970;2023-04-30T12:02:48;25.90;95.90
16515;DHT22;8370;52.556;7.970;2023-04-30T12:05:20;25.80;93.70
16515;DHT22;8370;52.556;7.970;2023-04-30T12:07:49;26.40;91.90
16515;DHT22;8370;52.556;7.970;2023-04-30T12:10:15;27.50;86.40
16515;DHT22;8370;52.556;7.970;2023-04-30T12:12:42;28.70;84.80
16515;DHT22;8370;52.556;7.970;2023-04-30T12:15:12;29.50;79.10
16515;DHT22;8370;52.556;7.970;2023-04-30T12:17:38;28.70;77.80
16515;DHT22;8370;52.556;7.970;2023-04-30T12:20:04;28.50;78.30
16515;DHT22;8370;52.556;7.970;2023-04-30T12:22:30;29.00;76.60
16515;DHT22;8370;52.556;7.970;2023-04-30T12:24:58;29.60;76.80
16515;DHT22;8370;52.556;7.970;2023-04-30T12:27:24;30.10;73.60
16515;DHT22;8370;52.556;7.970;2023-04-30T12:29:49;30.70;72.80
16515;DHT22;8370;52.556;7.970;2023-04-30T12:32:20;30.90;71.80
16515;DHT22;8370;52.556;7.970;2023-04-30T12:34:46;31.50;69.90
16515;DHT22;8370;52.556;7.970;2023-04-30T12:37:14;30.80;67.00
16515;DHT22;8370;52.556;7.970;2023-04-30T12:39:41;29.90;68.60
16515;DHT22;8370;52.556;7.970;2023-04-30T12:42:06;29.70;68.20
16515;DHT22;8370;52.556;7.970;2023-04-30T12:44:41;28.80;70.20
16515;DHT22;8370;52.556;7.970;2023-04-30T12:47:08;28.90;70.50
16515;DHT22;8370;52.556;7.970;2023-04-30T12:49:34;29.20;70.10
16515;DHT22;8370;52.556;7.970;2023-04-30T12:52:04;29.70;68.90
16515;DHT22;8370;52.556;7.970;2023-04-30T12:54:33;30.10;68.70
16515;DHT22;8370;52.556;7.970;2023-04-30T12:57:02;29.80;66.00
16515;DHT22;8370;52.556;7.970;2023-04-30T12:59:30;29.30;68.80
16515;DHT22;8370;52.556;7.970;2023-04-30T13:02:07;28.80;69.30
16515;DHT22;8370;52.556;7.970;2023-04-30T13:04:34;28.40;69.30
16515;DHT22;8370;52.556;7.970;2023-04-30T13:07:00;28.30;67.10
16515;DHT22;8370;52.556;7.970;2023-04-30T13:09:26;28.80;67.30
16515;DHT22;8370;52.556;7.970;2023-04-30T13:11:51;28.90;68.20
16515;DHT22;8370;52.556;7.970;2023-04-30T13:14:16;28.80;69.40
16515;DHT22;8370;52.556;7.970;2023-04-30T13:16:42;29.20;68.80
16515;DHT22;8370;52.556;7.970;2023-04-30T13:19:08;29.20;65.70
16515;DHT22;8370;52.556;7.970;2023-04-30T13:21:34;30.00;66.90
16515;DHT22;8370;52.556;7.970;2023-04-30T13:23:59;30.30;65.80
16515;DHT22;8370;52.556;7.970;2023-04-30T13:26:26;29.80;65.30
16515;DHT22;8370;52.556;7.970;2023-04-30T13:28:52;29.80;65.90
16515;DHT22;8370;52.556;7.970;2023-04-30T13:31:18;29.50;65.30
16515;DHT22;8370;52.556;7.970;2023-04-30T13:33:44;29.60;65.80
16515;DHT22;8370;52.556;7.970;2023-04-30T13:36:09;30.00;66.50
16515;DHT22;8370;52.556;7.970;2023-04-30T13:38:35;30.30;66.90
16515;DHT22;8370;52.556;7.970;2023-04-30T13:41:00;30.70;65.00
16515;DHT22;8370;52.556;7.970;2023-04-30T13:43:26;31.00;62.60
16515;DHT22;8370;52.556;7.970;2023-04-30T13:45:51;30.90;63.00
16515;DHT22;8370;52.556;7.970;2023-04-30T13:48:17;31.00;64.80
16515;DHT22;8370;52.556;7.970;2023-04-30T13:50:42;31.30;63.70
16515;DHT22;8370;52.556;7.970;2023-04-30T13:53:08;31.10;63.40
16515;DHT22;8370;52.556;7.970;2023-04-30T13:55:33;30.60;63.50
16515;DHT22;8370;52.556;7.970;2023-04-30T13:57:59;30.30;63.90
16515;DHT22;8370;52.556;7.970;2023-04-30T14:00:24;28.80;65.70
16515;DHT22;8370;52.556;7.970;2023-04-30T14:02:51;28.80;66.30
16515;DHT22;8370;52.556;7.970;2023-04-30T14:05:16;29.10;65.90
16515;DHT22;8370;52.556;7.970;2023-04-30T14:07:42;28.80;65.60
16515;DHT22;8370;52.556;7.970;2023-04-30T14:10:08;28.20;65.90
16515;DHT22;8370;52.556;7.970;2023-04-30T14:12:33;28.60;66.70
16515;DHT22;8370;52.556;7.970;2023-04-30T14:14:59;29.00;65.60
16515;DHT22;8370;52.556;7.970;2023-04-30T14:17:24;29.20;64.90
16515;DHT22;8370;52.556;7.970;2023-04-30T14:19:53;28.40;66.90
16515;DHT22;8370;52.556;7.970;2023-04-30T14:22:19;27.70;66.70
16515;DHT22;8370;52.556;7.970;2023-04-30T14:24:44;27.00;68.00
16515;DHT22;8370;52.556;7.970;2023-04-30T14:27:10;27.00;69.60
16515;DHT22;8370;52.556;7.970;2023-04-30T14:29:35;26.80;68.50
16515;DHT22;8370;52.556;7.970;2023-04-30T14:32:01;26.40;69.70
16515;DHT22;8370;52.556;7.970;2023-04-30T14:34:26;26.50;68.80
16515;DHT22;8370;52.556;7.970;2023-04-30T14:36:52;26.10;68.60
16515;DHT22;8370;52.556;7.970;2023-04-30T14:39:17;26.10;68.40
16515;DHT22;8370;52.556;7.970;2023-04-30T14:41:43;27.30;69.30
16515;DHT22;8370;52.556;7.970;2023-04-30T14:44:09;28.20;68.00
16515;DHT22;8370;52.556;7.970;2023-04-30T14:46:34;27.90;67.00
16515;DHT22;8370;52.556;7.970;2023-04-30T14:49:00;27.70;66.30
16515;DHT22;8370;52.556;7.970;2023-04-30T14:51:25;27.70;67.20
16515;DHT22;8370;52.556;7.970;2023-04-30T14:53:53;26.90;68.50
16515;DHT22;8370;52.556;7.970;2023-04-30T14:56:18;26.60;68.80
16515;DHT22;8370;52.556;7.970;2023-04-30T14:58:43;26.40;68.60
16515;DHT22;8370;52.556;7.970;2023-04-30T15:01:09;26.50;69.60
16515;DHT22;8370;52.556;7.970;2023-04-30T15:03:34;25.90;70.20
16515;DHT22;8370;52.556;7.970;2023-04-30T15:06:00;26.00;70.20
16515;DHT22;8370;52.556;7.970;2023-04-30T15:08:25;26.20;69.70
16515;DHT22;8370;52.556;7.970;2023-04-30T15:10:51;26.60;69.20
16515;DHT22;8370;52.556;7.970;2023-04-30T15:13:16;27.10;69.40
16515;DHT22;8370;52.556;7.970;2023-04-30T15:15:42;26.80;67.20
16515;DHT22;8370;52.556;7.970;2023-04-30T15:18:11;26.30;69.20
16515;DHT22;8370;52.556;7.970;2023-04-30T15:20:36;26.30;69.00
16515;DHT22;8370;52.556;7.970;2023-04-30T15:23:02;26.10;68.70
16515;DHT22;8370;52.556;7.970;2023-04-30T15:25:28;25.70;70.70
16515;DHT22;8370;52.556;7.970;2023-04-30T15:27:53;25.60;70.30
16515;DHT22;8370;52.556;7.970;2023-04-30T15:30:20;25.20;71.10
16515;DHT22;8370;52.556;7.970;2023-04-30T15:32:48;24.50;72.00
16515;DHT22;8370;52.556;7.970;2023-04-30T15:35:13;24.00;72.10
16515;DHT22;8370;52.556;7.970;2023-04-30T15:37:39;23.90;72.90
16515;DHT22;8370;52.556;7.970;2023-04-30T15:40:05;24.60;72.60
16515;DHT22;8370;52.556;7.970;2023-04-30T15:42:32;24.90;72.10
16515;DHT22;8370;52.556;7.970;2023-04-30T15:44:57;25.00;71.80
16515;DHT22;8370;52.556;7.970;2023-04-30T15:47:24;25.20;71.60
16515;DHT22;8370;52.556;7.970;2023-04-30T15:49:49;25.20;71.70
16515;DHT22;8370;52.556;7.970;2023-04-30T15:52:15;26.10;70.20
16515;DHT22;8370;52.556;7.970;2023-04-30T15:54:41;26.70;70.20
16515;DHT22;8370;52.556;7.970;2023-04-30T15:57:06;26.80;68.80
16515;DHT22;8370;52.556;7.970;2023-04-30T15:59:32;27.00;69.60
16515;DHT22;8370;52.556;7.970;2023-04-30T16:01:58;27.30;68.30
16515;DHT22;8370;52.556;7.970;2023-04-30T16:04:24;27.80;67.30
16515;DHT22;8370;52.556;7.970;2023-04-30T16:06:50;28.60;66.90
16515;DHT22;8370;52.556;7.970;2023-04-30T16:09:16;29.30;65.70